Wind Surf — C6I06 — position and weather

sailwx.info

Track history (hours):
 
Tides and Currents Weather Stations Pressure Air Temp Water Temp Dewpoint Dewpoint Depression Visibility Wind Speed Wind Dir Waves Ship Positions

Wind Surf

Last reported at 2017-Dec-15 11:07 UTC. Time now 2017-Dec-15 21:49 UTC.
Position N 14°05' W 060°58'.

Length 180 m; draft 5.4 m.

Type: Passenger vessel. MMSI: 309242000.

Date/timePositionNaut miles runAvg speedWind from/ knotsBaromVisibWave heightAir tempDewpointWater temp
2017-Dec-15 11:07N 14°05' W 060°58'0 0.2
2017-Dec-15 11:00N 14°05' W 060°58'2 4.0
2017-Dec-15 10:30N 14°06' W 061°00'4 7.4
2017-Dec-15 10:00N 14°07' W 061°03'10 7.7
2017-Dec-15 08:38N 14°12' W 061°13'14 4.3
2017-Dec-15 05:27N 14°26' W 061°15'3 6.3
2017-Dec-15 05:00N 14°27' W 061°12'3 6.3
2017-Dec-15 04:30N 14°29' W 061°10'3 6.4
2017-Dec-15 04:00N 14°32' W 061°08'5 2.5
2017-Dec-15 02:12N 14°34' W 061°04'0 0.0
2017-Dec-15 00:51N 14°34' W 061°04'0 0.0
2017-Dec-14 18:17N 14°34' W 061°04'0 0.0
2017-Dec-14 17:56N 14°34' W 061°04'0 0.0
2017-Dec-14 17:19N 14°34' W 061°04'0 0.0
2017-Dec-14 17:00N 14°34' W 061°04'0 0.0
2017-Dec-14 16:22N 14°34' W 061°04'0 0.0
2017-Dec-14 15:48N 14°34' W 061°04'0 0.0
2017-Dec-14 14:54N 14°34' W 061°04'0 0.0
2017-Dec-14 14:14N 14°34' W 061°04'0 0.1
2017-Dec-14 13:59N 14°34' W 061°04'0 0.0
2017-Dec-14 12:42N 14°34' W 061°04'0 0.0
2017-Dec-14 12:25N 14°34' W 061°04'0 0.0
2017-Dec-14 12:00N 14°34' W 061°04'0 0.0
2017-Dec-14 11:30N 14°34' W 061°04'2 4.8
2017-Dec-14 11:00N 14°35' W 061°06'4 8.0
2017-Dec-14 10:29N 14°36' W 061°10'6 9.3
2017-Dec-14 09:52N 14°41' W 061°14'5310.5
2017-Dec-14 04:49N 15°29' W 061°36'24 8.8
2017-Dec-14 02:06N 15°53' W 061°35'57 2.6
2017-Dec-13 04:13N 16°32' W 062°19'2 8.8
2017-Dec-13 03:58N 16°34' W 062°20'5 9.0
2017-Dec-13 03:25N 16°38' W 062°24'4 9.2
2017-Dec-13 02:59N 16°40' W 062°27'39 2.4
2017-Dec-12 10:48N 17°16' W 062°44'3 8.0
2017-Dec-12 10:23N 17°13' W 062°44'35 3.9
2017-Dec-12 01:29N 16°40' W 062°31'7 5.6
2017-Dec-12 00:19N 16°42' W 062°25'2 5.9
2017-Dec-11 23:55N 16°43' W 062°23'2 5.8
2017-Dec-11 23:30N 16°45' W 062°21'3 5.9
2017-Dec-11 23:00N 16°46' W 062°18'3 6.6
2017-Dec-11 22:29N 16°48' W 062°15'2 1.8
2017-Dec-11 21:18N 16°48' W 062°13'0 0.1
2017-Dec-11 20:57N 16°48' W 062°13'0 0.0
2017-Dec-11 20:27N 16°48' W 062°13'0 0.1
2017-Dec-11 20:00N 16°48' W 062°13'0 0.1
2017-Dec-11 19:21N 16°48' W 062°13'0 0.0
2017-Dec-11 18:57N 16°48' W 062°13'0 0.1
2017-Dec-11 18:27N 16°48' W 062°13'0 0.0
2017-Dec-11 18:00N 16°48' W 062°13'0 0.0
2017-Dec-11 17:27N 16°48' W 062°13'0 0.0
2017-Dec-11 16:54N 16°48' W 062°13'0 0.0
2017-Dec-11 16:30N 16°48' W 062°13'0 0.0
2017-Dec-11 15:54N 16°48' W 062°13'0 0.0
2017-Dec-11 13:51N 16°48' W 062°13'0 0.1
2017-Dec-11 13:18N 16°48' W 062°13'0 0.1
2017-Dec-11 12:57N 16°48' W 062°13'0 0.0
2017-Dec-11 12:30N 16°48' W 062°13'0 0.0
2017-Dec-11 11:54N 16°48' W 062°13'0 0.0
2017-Dec-11 11:29N 16°48' W 062°13'0 0.6
2017-Dec-11 11:00N 16°48' W 062°13'4 8.2
2017-Dec-11 10:30N 16°45' W 062°16'4 6.9
2017-Dec-11 09:56N 16°41' W 062°16'4 8.5
2017-Dec-11 09:26N 16°37' W 062°14'4 8.4
2017-Dec-11 09:00N 16°34' W 062°13'4 8.2
2017-Dec-11 08:31N 16°30' W 062°11'5 8.3
2017-Dec-11 07:51N 16°25' W 062°09'2 7.2
2017-Dec-11 07:30N 16°23' W 062°08'4 7.4
2017-Dec-11 06:56N 16°19' W 062°06'3 7.3
2017-Dec-11 06:30N 16°16' W 062°05'4 7.3
2017-Dec-11 06:00N 16°13' W 062°03'104 7.9
2017-Dec-10 16:55N 14°39' W 061°17'6 8.7
2017-Dec-10 16:15N 14°34' W 061°15'3 8.8
2017-Dec-10 15:52N 14°32' W 061°12'4 8.3
2017-Dec-10 15:21N 14°29' W 061°09'3 8.9
2017-Dec-10 14:58N 14°27' W 061°06'5 9.2
2017-Dec-10 14:27N 14°23' W 061°03'4 9.2
2017-Dec-10 14:00N 14°20' W 060°60'612.0
2017-Dec-10 13:30N 14°16' W 060°55'612.1
2017-Dec-10 13:00N 14°12' W 060°51'  
Track history (hours):
 
Tides and Currents Weather Stations Pressure Air Temp Water Temp Dewpoint Dewpoint Depression Visibility Wind Speed Wind Dir Waves Ship Positions

Wind Surf

Last reported at 2017-Dec-15 11:07 UTC. Time now 2017-Dec-15 21:49 UTC.
Position N 14°05' W 060°58'.

Length 180 m; draft 5.4 m.

Type: Passenger vessel. MMSI: 309242000.

Date/timePositionNaut miles runAvg speedWind from/ knotsBaromVisibWave heightAir tempDewpointWater temp
2017-Dec-15 11:07N 14°05' W 060°58'0 0.2
2017-Dec-15 11:00N 14°05' W 060°58'2 4.0
2017-Dec-15 10:30N 14°06' W 061°00'4 7.4
2017-Dec-15 10:00N 14°07' W 061°03'10 7.7
2017-Dec-15 08:38N 14°12' W 061°13'14 4.3
2017-Dec-15 05:27N 14°26' W 061°15'3 6.3
2017-Dec-15 05:00N 14°27' W 061°12'3 6.3
2017-Dec-15 04:30N 14°29' W 061°10'3 6.4
2017-Dec-15 04:00N 14°32' W 061°08'5 2.5
2017-Dec-15 02:12N 14°34' W 061°04'0 0.0
2017-Dec-15 00:51N 14°34' W 061°04'0 0.0
2017-Dec-14 18:17N 14°34' W 061°04'0 0.0
2017-Dec-14 17:56N 14°34' W 061°04'0 0.0
2017-Dec-14 17:19N 14°34' W 061°04'0 0.0
2017-Dec-14 17:00N 14°34' W 061°04'0 0.0
2017-Dec-14 16:22N 14°34' W 061°04'0 0.0
2017-Dec-14 15:48N 14°34' W 061°04'0 0.0
2017-Dec-14 14:54N 14°34' W 061°04'0 0.0
2017-Dec-14 14:14N 14°34' W 061°04'0 0.1
2017-Dec-14 13:59N 14°34' W 061°04'0 0.0
2017-Dec-14 12:42N 14°34' W 061°04'0 0.0
2017-Dec-14 12:25N 14°34' W 061°04'0 0.0
2017-Dec-14 12:00N 14°34' W 061°04'0 0.0
2017-Dec-14 11:30N 14°34' W 061°04'2 4.8
2017-Dec-14 11:00N 14°35' W 061°06'4 8.0
2017-Dec-14 10:29N 14°36' W 061°10'6 9.3
2017-Dec-14 09:52N 14°41' W 061°14'5310.5
2017-Dec-14 04:49N 15°29' W 061°36'24 8.8
2017-Dec-14 02:06N 15°53' W 061°35'57 2.6
2017-Dec-13 04:13N 16°32' W 062°19'2 8.8
2017-Dec-13 03:58N 16°34' W 062°20'5 9.0
2017-Dec-13 03:25N 16°38' W 062°24'4 9.2
2017-Dec-13 02:59N 16°40' W 062°27'39 2.4
2017-Dec-12 10:48N 17°16' W 062°44'3 8.0
2017-Dec-12 10:23N 17°13' W 062°44'35 3.9
2017-Dec-12 01:29N 16°40' W 062°31'7 5.6
2017-Dec-12 00:19N 16°42' W 062°25'2 5.9
2017-Dec-11 23:55N 16°43' W 062°23'2 5.8
2017-Dec-11 23:30N 16°45' W 062°21'3 5.9
2017-Dec-11 23:00N 16°46' W 062°18'3 6.6
2017-Dec-11 22:29N 16°48' W 062°15'2 1.8
2017-Dec-11 21:18N 16°48' W 062°13'0 0.1
2017-Dec-11 20:57N 16°48' W 062°13'0 0.0
2017-Dec-11 20:27N 16°48' W 062°13'0 0.1
2017-Dec-11 20:00N 16°48' W 062°13'0 0.1
2017-Dec-11 19:21N 16°48' W 062°13'0 0.0
2017-Dec-11 18:57N 16°48' W 062°13'0 0.1
2017-Dec-11 18:27N 16°48' W 062°13'0 0.0
2017-Dec-11 18:00N 16°48' W 062°13'0 0.0
2017-Dec-11 17:27N 16°48' W 062°13'0 0.0
2017-Dec-11 16:54N 16°48' W 062°13'0 0.0
2017-Dec-11 16:30N 16°48' W 062°13'0 0.0
2017-Dec-11 15:54N 16°48' W 062°13'0 0.0
2017-Dec-11 13:51N 16°48' W 062°13'0 0.1
2017-Dec-11 13:18N 16°48' W 062°13'0 0.1
2017-Dec-11 12:57N 16°48' W 062°13'0 0.0
2017-Dec-11 12:30N 16°48' W 062°13'0 0.0
2017-Dec-11 11:54N 16°48' W 062°13'0 0.0
2017-Dec-11 11:29N 16°48' W 062°13'0 0.6
2017-Dec-11 11:00N 16°48' W 062°13'4 8.2
2017-Dec-11 10:30N 16°45' W 062°16'4 6.9
2017-Dec-11 09:56N 16°41' W 062°16'4 8.5
2017-Dec-11 09:26N 16°37' W 062°14'4 8.4
2017-Dec-11 09:00N 16°34' W 062°13'4 8.2
2017-Dec-11 08:31N 16°30' W 062°11'5 8.3
2017-Dec-11 07:51N 16°25' W 062°09'2 7.2
2017-Dec-11 07:30N 16°23' W 062°08'4 7.4
2017-Dec-11 06:56N 16°19' W 062°06'3 7.3
2017-Dec-11 06:30N 16°16' W 062°05'4 7.3
2017-Dec-11 06:00N 16°13' W 062°03'104 7.9
2017-Dec-10 16:55N 14°39' W 061°17'6 8.7
2017-Dec-10 16:15N 14°34' W 061°15'3 8.8
2017-Dec-10 15:52N 14°32' W 061°12'4 8.3
2017-Dec-10 15:21N 14°29' W 061°09'3 8.9
2017-Dec-10 14:58N 14°27' W 061°06'5 9.2
2017-Dec-10 14:27N 14°23' W 061°03'4 9.2
2017-Dec-10 14:00N 14°20' W 060°60'612.0
2017-Dec-10 13:30N 14°16' W 060°55'612.1
2017-Dec-10 13:00N 14°12' W 060°51'  

Dump ship's entire track history